Bethany, Minnesota
Current Conditions -  °F | °C
As of 1:13 PM on Thursday 30 Oct 2014 (Local Time) from KONA Reporting Station
Overcast Overcast  
Wind Chill: 43°   Ceiling: 4300
Heat Index: 43°   Visibility: 10mi
Dew Point: 36°   Wind: 0mph
Humidity: 76%   Direction: NA
Pressure: 30.08"   Gusts: NA
Location:  44.1503°N, 91.9879°W
Report Text: KONA 301813Z AUTO 00000KT 10SM BKN043 OVC065 06/02 A3008 RMK AO2
Loading
Personal Weather Stations






























Interactive Weather Map
Tropical Storm Tracking
New forecast layout! Learn more

10-Day Weather Forecast

Advertisements
Track Severe Weather on mobile